sensor_id;sensor_type;location;lat;lon;timestamp;P1;durP1;ratioP1;P2;durP2;ratioP2
49177;SDS011;35016;55.674;37.468;2023-12-29T00:00:13;4.43;;;1.75;;
49177;SDS011;35016;55.674;37.468;2023-12-29T00:02:40;7.43;;;2.22;;
49177;SDS011;35016;55.674;37.468;2023-12-29T00:05:07;8.18;;;2.15;;
49177;SDS011;35016;55.674;37.468;2023-12-29T00:07:35;5.47;;;1.77;;
49177;SDS011;35016;55.674;37.468;2023-12-29T00:10:02;5.93;;;1.75;;
49177;SDS011;35016;55.674;37.468;2023-12-29T00:12:30;4.47;;;1.40;;
49177;SDS011;35016;55.674;37.468;2023-12-29T00:14:57;6.40;;;1.45;;
49177;SDS011;35016;55.674;37.468;2023-12-29T00:17:24;4.40;;;1.30;;
49177;SDS011;35016;55.674;37.468;2023-12-29T00:19:51;5.03;;;1.83;;
49177;SDS011;35016;55.674;37.468;2023-12-29T00:22:20;5.20;;;1.85;;
49177;SDS011;35016;55.674;37.468;2023-12-29T00:24:47;6.38;;;1.95;;
49177;SDS011;35016;55.674;37.468;2023-12-29T00:27:15;4.80;;;1.88;;
49177;SDS011;35016;55.674;37.468;2023-12-29T00:29:42;7.25;;;2.22;;
49177;SDS011;35016;55.674;37.468;2023-12-29T00:32:09;7.13;;;2.50;;
49177;SDS011;35016;55.674;37.468;2023-12-29T00:34:37;5.88;;;2.17;;
49177;SDS011;35016;55.674;37.468;2023-12-29T00:37:05;7.00;;;2.10;;
49177;SDS011;35016;55.674;37.468;2023-12-29T00:39:33;5.10;;;1.60;;
49177;SDS011;35016;55.674;37.468;2023-12-29T00:42:06;4.72;;;1.60;;
49177;SDS011;35016;55.674;37.468;2023-12-29T00:44:34;5.78;;;1.98;;
49177;SDS011;35016;55.674;37.468;2023-12-29T00:47:01;7.18;;;2.35;;
49177;SDS011;35016;55.674;37.468;2023-12-29T00:49:29;6.80;;;2.10;;
49177;SDS011;35016;55.674;37.468;2023-12-29T00:51:56;4.68;;;1.77;;
49177;SDS011;35016;55.674;37.468;2023-12-29T00:54:23;6.68;;;1.55;;
49177;SDS011;35016;55.674;37.468;2023-12-29T00:56:55;4.22;;;1.20;;
49177;SDS011;35016;55.674;37.468;2023-12-29T00:59:22;5.70;;;1.60;;
49177;SDS011;35016;55.674;37.468;2023-12-29T01:01:50;6.57;;;1.88;;
49177;SDS011;35016;55.674;37.468;2023-12-29T01:04:17;5.70;;;1.90;;
49177;SDS011;35016;55.674;37.468;2023-12-29T01:06:44;7.15;;;1.92;;
49177;SDS011;35016;55.674;37.468;2023-12-29T01:09:12;5.95;;;2.10;;
49177;SDS011;35016;55.674;37.468;2023-12-29T01:11:57;7.43;;;2.00;;
49177;SDS011;35016;55.674;37.468;2023-12-29T01:14:24;5.32;;;1.98;;
49177;SDS011;35016;55.674;37.468;2023-12-29T01:16:52;6.28;;;1.98;;
49177;SDS011;35016;55.674;37.468;2023-12-29T01:19:19;5.45;;;2.05;;
49177;SDS011;35016;55.674;37.468;2023-12-29T01:21:46;7.32;;;2.60;;
49177;SDS011;35016;55.674;37.468;2023-12-29T01:24:14;7.70;;;2.47;;
49177;SDS011;35016;55.674;37.468;2023-12-29T01:26:42;6.30;;;2.15;;
49177;SDS011;35016;55.674;37.468;2023-12-29T01:29:09;7.07;;;2.40;;
49177;SDS011;35016;55.674;37.468;2023-12-29T01:31:37;7.47;;;2.75;;
49177;SDS011;35016;55.674;37.468;2023-12-29T01:34:05;7.82;;;2.67;;
49177;SDS011;35016;55.674;37.468;2023-12-29T01:36:32;6.57;;;2.17;;
49177;SDS011;35016;55.674;37.468;2023-12-29T01:38:59;7.53;;;2.60;;
49177;SDS011;35016;55.674;37.468;2023-12-29T01:41:29;6.68;;;2.25;;
49177;SDS011;35016;55.674;37.468;2023-12-29T01:46:27;5.03;;;1.42;;
49177;SDS011;35016;55.674;37.468;2023-12-29T01:48:56;6.95;;;2.55;;
49177;SDS011;35016;55.674;37.468;2023-12-29T01:51:26;6.18;;;1.98;;
49177;SDS011;35016;55.674;37.468;2023-12-29T01:53:54;6.93;;;2.20;;
49177;SDS011;35016;55.674;37.468;2023-12-29T01:56:23;7.03;;;2.35;;
49177;SDS011;35016;55.674;37.468;2023-12-29T01:58:51;6.47;;;2.03;;
49177;SDS011;35016;55.674;37.468;2023-12-29T02:01:19;7.32;;;2.03;;
49177;SDS011;35016;55.674;37.468;2023-12-29T02:03:48;6.47;;;2.15;;
49177;SDS011;35016;55.674;37.468;2023-12-29T02:06:16;8.77;;;2.55;;
49177;SDS011;35016;55.674;37.468;2023-12-29T02:08:44;6.93;;;2.28;;
49177;SDS011;35016;55.674;37.468;2023-12-29T02:11:11;7.95;;;2.45;;
49177;SDS011;35016;55.674;37.468;2023-12-29T02:13:39;6.63;;;2.13;;
49177;SDS011;35016;55.674;37.468;2023-12-29T02:16:09;7.38;;;1.83;;
49177;SDS011;35016;55.674;37.468;2023-12-29T02:18:45;4.05;;;1.42;;
49177;SDS011;35016;55.674;37.468;2023-12-29T02:21:13;6.78;;;2.05;;
49177;SDS011;35016;55.674;37.468;2023-12-29T02:23:40;4.90;;;1.40;;
49177;SDS011;35016;55.674;37.468;2023-12-29T02:26:10;6.47;;;2.00;;
49177;SDS011;35016;55.674;37.468;2023-12-29T02:28:41;5.20;;;1.70;;
49177;SDS011;35016;55.674;37.468;2023-12-29T02:31:14;4.13;;;1.17;;
49177;SDS011;35016;55.674;37.468;2023-12-29T02:33:45;5.13;;;1.80;;
49177;SDS011;35016;55.674;37.468;2023-12-29T02:36:14;5.88;;;1.67;;
49177;SDS011;35016;55.674;37.468;2023-12-29T02:38:44;7.15;;;1.77;;
49177;SDS011;35016;55.674;37.468;2023-12-29T02:41:11;5.00;;;1.40;;
49177;SDS011;35016;55.674;37.468;2023-12-29T02:43:40;4.47;;;1.58;;
49177;SDS011;35016;55.674;37.468;2023-12-29T02:46:08;6.25;;;1.95;;
49177;SDS011;35016;55.674;37.468;2023-12-29T02:48:35;6.10;;;1.77;;
49177;SDS011;35016;55.674;37.468;2023-12-29T02:51:02;5.90;;;1.90;;
49177;SDS011;35016;55.674;37.468;2023-12-29T02:53:29;6.00;;;1.75;;
49177;SDS011;35016;55.674;37.468;2023-12-29T02:55:56;5.10;;;1.55;;
49177;SDS011;35016;55.674;37.468;2023-12-29T02:58:23;5.43;;;1.48;;
49177;SDS011;35016;55.674;37.468;2023-12-29T03:00:50;4.10;;;1.35;;
49177;SDS011;35016;55.674;37.468;2023-12-29T03:03:18;5.60;;;1.50;;
49177;SDS011;35016;55.674;37.468;2023-12-29T03:05:45;4.75;;;1.58;;
49177;SDS011;35016;55.674;37.468;2023-12-29T03:08:12;5.20;;;1.70;;
49177;SDS011;35016;55.674;37.468;2023-12-29T03:10:39;3.63;;;1.25;;
49177;SDS011;35016;55.674;37.468;2023-12-29T03:13:06;6.32;;;1.52;;
49177;SDS011;35016;55.674;37.468;2023-12-29T03:15:34;2.45;;;1.08;;
49177;SDS011;35016;55.674;37.468;2023-12-29T03:18:03;6.35;;;2.08;;
49177;SDS011;35016;55.674;37.468;2023-12-29T03:20:31;5.00;;;1.38;;
49177;SDS011;35016;55.674;37.468;2023-12-29T03:22:58;4.47;;;1.42;;
49177;SDS011;35016;55.674;37.468;2023-12-29T03:25:25;4.57;;;1.50;;
49177;SDS011;35016;55.674;37.468;2023-12-29T03:27:53;4.80;;;1.85;;
49177;SDS011;35016;55.674;37.468;2023-12-29T03:30:21;5.25;;;1.50;;
49177;SDS011;35016;55.674;37.468;2023-12-29T03:32:48;4.72;;;1.50;;
49177;SDS011;35016;55.674;37.468;2023-12-29T03:35:17;5.68;;;1.95;;
49177;SDS011;35016;55.674;37.468;2023-12-29T03:37:44;6.03;;;1.45;;
49177;SDS011;35016;55.674;37.468;2023-12-29T03:40:12;6.63;;;2.00;;
49177;SDS011;35016;55.674;37.468;2023-12-29T03:42:40;4.25;;;1.38;;
49177;SDS011;35016;55.674;37.468;2023-12-29T03:45:08;4.22;;;1.50;;
49177;SDS011;35016;55.674;37.468;2023-12-29T03:47:36;4.95;;;1.77;;
49177;SDS011;35016;55.674;37.468;2023-12-29T03:50:04;5.65;;;1.55;;
49177;SDS011;35016;55.674;37.468;2023-12-29T03:52:31;4.00;;;1.38;;
49177;SDS011;35016;55.674;37.468;2023-12-29T03:54:58;5.40;;;1.55;;
49177;SDS011;35016;55.674;37.468;2023-12-29T03:57:26;3.88;;;1.38;;
49177;SDS011;35016;55.674;37.468;2023-12-29T03:59:53;6.35;;;1.80;;
49177;SDS011;35016;55.674;37.468;2023-12-29T04:02:21;7.10;;;2.22;;
49177;SDS011;35016;55.674;37.468;2023-12-29T04:04:48;5.95;;;1.90;;
49177;SDS011;35016;55.674;37.468;2023-12-29T04:07:15;6.03;;;1.80;;
49177;SDS011;35016;55.674;37.468;2023-12-29T04:10:01;5.07;;;1.73;;
49177;SDS011;35016;55.674;37.468;2023-12-29T04:12:29;5.75;;;1.80;;
49177;SDS011;35016;55.674;37.468;2023-12-29T04:14:56;5.25;;;2.03;;
49177;SDS011;35016;55.674;37.468;2023-12-29T04:17:24;4.45;;;1.45;;
49177;SDS011;35016;55.674;37.468;2023-12-29T04:19:51;4.85;;;1.48;;
49177;SDS011;35016;55.674;37.468;2023-12-29T04:22:19;6.65;;;2.45;;
49177;SDS011;35016;55.674;37.468;2023-12-29T04:24:46;5.32;;;1.70;;
49177;SDS011;35016;55.674;37.468;2023-12-29T04:27:14;6.38;;;1.77;;
49177;SDS011;35016;55.674;37.468;2023-12-29T04:29:42;7.13;;;1.75;;
49177;SDS011;35016;55.674;37.468;2023-12-29T04:32:11;6.40;;;2.05;;
49177;SDS011;35016;55.674;37.468;2023-12-29T04:34:38;5.68;;;1.73;;
49177;SDS011;35016;55.674;37.468;2023-12-29T04:37:05;8.57;;;3.10;;
49177;SDS011;35016;55.674;37.468;2023-12-29T04:39:32;7.88;;;2.03;;
49177;SDS011;35016;55.674;37.468;2023-12-29T04:41:59;4.97;;;1.70;;
49177;SDS011;35016;55.674;37.468;2023-12-29T04:44:26;6.70;;;2.17;;
49177;SDS011;35016;55.674;37.468;2023-12-29T04:46:54;6.43;;;2.17;;
49177;SDS011;35016;55.674;37.468;2023-12-29T04:49:21;6.55;;;1.90;;
49177;SDS011;35016;55.674;37.468;2023-12-29T04:51:48;5.90;;;1.75;;
49177;SDS011;35016;55.674;37.468;2023-12-29T04:54:16;7.32;;;2.30;;
49177;SDS011;35016;55.674;37.468;2023-12-29T04:56:43;5.18;;;2.13;;
49177;SDS011;35016;55.674;37.468;2023-12-29T04:59:10;8.00;;;2.17;;
49177;SDS011;35016;55.674;37.468;2023-12-29T05:01:37;7.00;;;1.95;;
49177;SDS011;35016;55.674;37.468;2023-12-29T05:04:05;6.07;;;2.25;;
49177;SDS011;35016;55.674;37.468;2023-12-29T05:06:32;6.35;;;1.75;;
49177;SDS011;35016;55.674;37.468;2023-12-29T05:08:59;7.53;;;2.08;;
49177;SDS011;35016;55.674;37.468;2023-12-29T05:11:27;6.50;;;1.90;;
49177;SDS011;35016;55.674;37.468;2023-12-29T05:13:54;7.00;;;2.05;;
49177;SDS011;35016;55.674;37.468;2023-12-29T05:16:21;5.85;;;2.13;;
49177;SDS011;35016;55.674;37.468;2023-12-29T05:18:49;8.07;;;2.42;;
49177;SDS011;35016;55.674;37.468;2023-12-29T05:21:16;5.18;;;1.70;;
49177;SDS011;35016;55.674;37.468;2023-12-29T05:23:44;6.28;;;2.38;;
49177;SDS011;35016;55.674;37.468;2023-12-29T05:26:12;6.75;;;2.30;;
49177;SDS011;35016;55.674;37.468;2023-12-29T05:28:40;8.13;;;2.35;;
49177;SDS011;35016;55.674;37.468;2023-12-29T05:31:08;7.50;;;2.33;;
49177;SDS011;35016;55.674;37.468;2023-12-29T05:33:35;8.07;;;2.45;;
49177;SDS011;35016;55.674;37.468;2023-12-29T05:36:06;6.72;;;2.38;;
49177;SDS011;35016;55.674;37.468;2023-12-29T05:38:35;7.85;;;2.30;;
49177;SDS011;35016;55.674;37.468;2023-12-29T05:41:04;6.82;;;2.45;;
49177;SDS011;35016;55.674;37.468;2023-12-29T05:43:31;6.70;;;2.45;;
49177;SDS011;35016;55.674;37.468;2023-12-29T05:45:59;7.07;;;2.40;;
49177;SDS011;35016;55.674;37.468;2023-12-29T05:48:27;7.63;;;2.90;;
49177;SDS011;35016;55.674;37.468;2023-12-29T05:50:55;7.18;;;2.63;;
49177;SDS011;35016;55.674;37.468;2023-12-29T05:53:22;7.90;;;2.78;;
49177;SDS011;35016;55.674;37.468;2023-12-29T05:55:49;9.35;;;3.55;;
49177;SDS011;35016;55.674;37.468;2023-12-29T05:58:17;7.90;;;3.35;;
49177;SDS011;35016;55.674;37.468;2023-12-29T06:00:44;13.65;;;3.92;;
49177;SDS011;35016;55.674;37.468;2023-12-29T06:03:11;9.95;;;3.58;;
49177;SDS011;35016;55.674;37.468;2023-12-29T06:05:38;8.65;;;3.55;;
49177;SDS011;35016;55.674;37.468;2023-12-29T06:08:06;8.05;;;3.13;;
49177;SDS011;35016;55.674;37.468;2023-12-29T06:10:33;8.32;;;2.65;;
49177;SDS011;35016;55.674;37.468;2023-12-29T06:13:03;7.68;;;2.95;;
49177;SDS011;35016;55.674;37.468;2023-12-29T06:15:30;9.10;;;3.25;;
49177;SDS011;35016;55.674;37.468;2023-12-29T06:17:57;9.15;;;3.58;;
49177;SDS011;35016;55.674;37.468;2023-12-29T06:20:25;8.25;;;3.45;;
49177;SDS011;35016;55.674;37.468;2023-12-29T06:22:52;7.90;;;2.45;;
49177;SDS011;35016;55.674;37.468;2023-12-29T06:25:19;8.73;;;3.10;;
49177;SDS011;35016;55.674;37.468;2023-12-29T06:27:46;7.93;;;3.08;;
49177;SDS011;35016;55.674;37.468;2023-12-29T06:30:15;6.60;;;2.75;;
49177;SDS011;35016;55.674;37.468;2023-12-29T06:32:42;8.52;;;3.65;;
49177;SDS011;35016;55.674;37.468;2023-12-29T06:35:10;9.90;;;3.67;;
49177;SDS011;35016;55.674;37.468;2023-12-29T06:37:37;9.88;;;4.53;;
49177;SDS011;35016;55.674;37.468;2023-12-29T06:40:08;8.88;;;3.13;;
49177;SDS011;35016;55.674;37.468;2023-12-29T06:42:36;9.18;;;3.20;;
49177;SDS011;35016;55.674;37.468;2023-12-29T06:45:04;9.98;;;3.67;;
49177;SDS011;35016;55.674;37.468;2023-12-29T06:47:34;10.10;;;4.13;;
49177;SDS011;35016;55.674;37.468;2023-12-29T06:50:02;9.68;;;3.25;;
49177;SDS011;35016;55.674;37.468;2023-12-29T06:52:31;7.10;;;2.70;;
49177;SDS011;35016;55.674;37.468;2023-12-29T06:55:01;10.98;;;3.65;;
49177;SDS011;35016;55.674;37.468;2023-12-29T06:57:31;7.75;;;3.03;;
49177;SDS011;35016;55.674;37.468;2023-12-29T06:59:58;7.20;;;2.88;;
49177;SDS011;35016;55.674;37.468;2023-12-29T07:02:26;8.98;;;4.05;;
49177;SDS011;35016;55.674;37.468;2023-12-29T07:04:53;10.50;;;3.53;;
49177;SDS011;35016;55.674;37.468;2023-12-29T07:07:20;8.90;;;3.47;;
49177;SDS011;35016;55.674;37.468;2023-12-29T07:09:47;9.75;;;3.75;;
49177;SDS011;35016;55.674;37.468;2023-12-29T07:12:15;8.20;;;3.38;;
49177;SDS011;35016;55.674;37.468;2023-12-29T07:14:42;8.55;;;3.50;;
49177;SDS011;35016;55.674;37.468;2023-12-29T07:17:09;10.85;;;3.35;;
49177;SDS011;35016;55.674;37.468;2023-12-29T07:19:36;9.95;;;3.80;;
49177;SDS011;35016;55.674;37.468;2023-12-29T07:22:04;9.63;;;3.90;;
49177;SDS011;35016;55.674;37.468;2023-12-29T07:24:35;11.07;;;3.03;;
49177;SDS011;35016;55.674;37.468;2023-12-29T07:27:03;8.60;;;3.03;;
49177;SDS011;35016;55.674;37.468;2023-12-29T07:29:31;10.05;;;3.25;;
49177;SDS011;35016;55.674;37.468;2023-12-29T07:31:58;7.65;;;3.08;;
49177;SDS011;35016;55.674;37.468;2023-12-29T07:34:26;7.90;;;3.22;;
49177;SDS011;35016;55.674;37.468;2023-12-29T07:36:54;9.55;;;3.40;;
49177;SDS011;35016;55.674;37.468;2023-12-29T07:39:21;8.73;;;4.10;;
49177;SDS011;35016;55.674;37.468;2023-12-29T07:41:48;10.43;;;3.85;;
49177;SDS011;35016;55.674;37.468;2023-12-29T07:44:17;9.60;;;3.97;;
49177;SDS011;35016;55.674;37.468;2023-12-29T07:46:44;8.18;;;3.67;;
49177;SDS011;35016;55.674;37.468;2023-12-29T07:49:11;9.48;;;3.75;;
49177;SDS011;35016;55.674;37.468;2023-12-29T07:51:42;8.30;;;3.50;;
49177;SDS011;35016;55.674;37.468;2023-12-29T07:54:13;8.48;;;3.28;;
49177;SDS011;35016;55.674;37.468;2023-12-29T07:56:41;8.05;;;3.10;;
49177;SDS011;35016;55.674;37.468;2023-12-29T07:59:08;8.43;;;3.75;;
49177;SDS011;35016;55.674;37.468;2023-12-29T08:01:35;8.65;;;3.60;;
49177;SDS011;35016;55.674;37.468;2023-12-29T08:04:03;10.35;;;3.63;;
49177;SDS011;35016;55.674;37.468;2023-12-29T08:06:31;10.25;;;4.10;;
49177;SDS011;35016;55.674;37.468;2023-12-29T08:08:58;8.48;;;3.58;;
49177;SDS011;35016;55.674;37.468;2023-12-29T08:11:25;9.05;;;3.65;;
49177;SDS011;35016;55.674;37.468;2023-12-29T08:13:52;8.48;;;3.63;;
49177;SDS011;35016;55.674;37.468;2023-12-29T08:16:19;7.60;;;2.88;;
49177;SDS011;35016;55.674;37.468;2023-12-29T08:18:48;9.30;;;3.13;;
49177;SDS011;35016;55.674;37.468;2023-12-29T08:21:17;7.18;;;3.10;;
49177;SDS011;35016;55.674;37.468;2023-12-29T08:23:46;9.40;;;3.72;;
49177;SDS011;35016;55.674;37.468;2023-12-29T08:26:13;7.78;;;3.25;;
49177;SDS011;35016;55.674;37.468;2023-12-29T08:28:41;9.88;;;3.65;;
49177;SDS011;35016;55.674;37.468;2023-12-29T08:31:09;7.25;;;3.00;;
49177;SDS011;35016;55.674;37.468;2023-12-29T08:33:36;7.60;;;2.80;;
49177;SDS011;35016;55.674;37.468;2023-12-29T08:36:04;8.02;;;3.25;;
49177;SDS011;35016;55.674;37.468;2023-12-29T08:38:31;12.27;;;3.78;;
49177;SDS011;35016;55.674;37.468;2023-12-29T08:40:59;8.15;;;3.30;;
49177;SDS011;35016;55.674;37.468;2023-12-29T08:43:26;8.60;;;3.67;;
49177;SDS011;35016;55.674;37.468;2023-12-29T08:45:53;8.15;;;3.45;;
49177;SDS011;35016;55.674;37.468;2023-12-29T08:48:21;7.28;;;2.70;;
49177;SDS011;35016;55.674;37.468;2023-12-29T08:50:49;8.07;;;3.53;;
49177;SDS011;35016;55.674;37.468;2023-12-29T08:53:16;8.00;;;3.55;;
49177;SDS011;35016;55.674;37.468;2023-12-29T08:55:44;7.75;;;3.13;;
49177;SDS011;35016;55.674;37.468;2023-12-29T08:58:11;10.10;;;4.15;;
49177;SDS011;35016;55.674;37.468;2023-12-29T09:00:39;9.25;;;3.45;;
49177;SDS011;35016;55.674;37.468;2023-12-29T09:03:06;11.93;;;3.63;;
49177;SDS011;35016;55.674;37.468;2023-12-29T09:05:34;10.45;;;3.33;;
49177;SDS011;35016;55.674;37.468;2023-12-29T09:08:01;8.90;;;3.33;;
49177;SDS011;35016;55.674;37.468;2023-12-29T09:10:29;9.45;;;3.95;;
49177;SDS011;35016;55.674;37.468;2023-12-29T09:12:56;7.85;;;2.95;;
49177;SDS011;35016;55.674;37.468;2023-12-29T09:15:23;8.85;;;3.10;;
49177;SDS011;35016;55.674;37.468;2023-12-29T09:17:51;7.53;;;2.72;;
49177;SDS011;35016;55.674;37.468;2023-12-29T09:20:18;8.27;;;3.13;;
49177;SDS011;35016;55.674;37.468;2023-12-29T09:22:45;9.13;;;3.30;;
49177;SDS011;35016;55.674;37.468;2023-12-29T09:25:13;8.23;;;2.78;;
49177;SDS011;35016;55.674;37.468;2023-12-29T09:27:41;10.75;;;3.03;;
49177;SDS011;35016;55.674;37.468;2023-12-29T09:30:08;8.52;;;3.47;;
49177;SDS011;35016;55.674;37.468;2023-12-29T09:32:36;9.07;;;3.25;;
49177;SDS011;35016;55.674;37.468;2023-12-29T09:35:04;8.77;;;3.58;;
49177;SDS011;35016;55.674;37.468;2023-12-29T09:37:31;9.98;;;3.72;;
49177;SDS011;35016;55.674;37.468;2023-12-29T09:39:59;10.52;;;3.38;;
49177;SDS011;35016;55.674;37.468;2023-12-29T09:42:26;7.80;;;3.13;;
49177;SDS011;35016;55.674;37.468;2023-12-29T09:44:56;8.18;;;3.35;;
49177;SDS011;35016;55.674;37.468;2023-12-29T09:47:24;10.75;;;3.60;;
49177;SDS011;35016;55.674;37.468;2023-12-29T09:49:55;8.95;;;3.13;;
49177;SDS011;35016;55.674;37.468;2023-12-29T09:52:22;9.52;;;3.70;;
49177;SDS011;35016;55.674;37.468;2023-12-29T09:54:50;8.23;;;3.90;;
49177;SDS011;35016;55.674;37.468;2023-12-29T09:57:21;7.53;;;3.22;;
49177;SDS011;35016;55.674;37.468;2023-12-29T09:59:52;9.65;;;4.03;;
49177;SDS011;35016;55.674;37.468;2023-12-29T10:02:21;9.63;;;3.30;;
49177;SDS011;35016;55.674;37.468;2023-12-29T10:04:51;9.65;;;3.65;;
49177;SDS011;35016;55.674;37.468;2023-12-29T10:07:20;9.30;;;3.50;;
49177;SDS011;35016;55.674;37.468;2023-12-29T10:09:57;10.38;;;3.55;;
49177;SDS011;35016;55.674;37.468;2023-12-29T10:12:30;8.77;;;3.30;;
49177;SDS011;35016;55.674;37.468;2023-12-29T10:18:08;9.10;;;3.22;;
49177;SDS011;35016;55.674;37.468;2023-12-29T10:26:43;9.55;;;3.25;;
49177;SDS011;35016;55.674;37.468;2023-12-29T10:29:11;9.30;;;2.60;;
49177;SDS011;35016;55.674;37.468;2023-12-29T10:31:42;9.60;;;3.40;;
49177;SDS011;35016;55.674;37.468;2023-12-29T10:34:19;7.45;;;3.10;;
49177;SDS011;35016;55.674;37.468;2023-12-29T10:36:48;8.95;;;3.30;;
49177;SDS011;35016;55.674;37.468;2023-12-29T10:39:16;9.05;;;3.42;;
49177;SDS011;35016;55.674;37.468;2023-12-29T10:41:44;9.93;;;3.53;;
49177;SDS011;35016;55.674;37.468;2023-12-29T10:44:11;7.85;;;3.38;;
49177;SDS011;35016;55.674;37.468;2023-12-29T10:46:38;8.40;;;3.00;;
49177;SDS011;35016;55.674;37.468;2023-12-29T10:49:09;8.05;;;2.83;;
49177;SDS011;35016;55.674;37.468;2023-12-29T10:51:37;8.55;;;3.22;;
49177;SDS011;35016;55.674;37.468;2023-12-29T10:54:05;11.27;;;3.40;;
49177;SDS011;35016;55.674;37.468;2023-12-29T10:56:32;11.57;;;3.80;;
49177;SDS011;35016;55.674;37.468;2023-12-29T10:59:03;7.90;;;2.72;;
49177;SDS011;35016;55.674;37.468;2023-12-29T11:01:33;7.07;;;2.58;;
49177;SDS011;35016;55.674;37.468;2023-12-29T11:04:02;11.85;;;3.47;;
49177;SDS011;35016;55.674;37.468;2023-12-29T11:06:39;6.82;;;2.88;;
49177;SDS011;35016;55.674;37.468;2023-12-29T11:09:13;12.13;;;3.30;;
49177;SDS011;35016;55.674;37.468;2023-12-29T11:11:57;9.45;;;3.05;;
49177;SDS011;35016;55.674;37.468;2023-12-29T11:14:27;7.63;;;2.80;;
49177;SDS011;35016;55.674;37.468;2023-12-29T11:16:56;7.93;;;2.40;;
49177;SDS011;35016;55.674;37.468;2023-12-29T11:19:27;7.90;;;2.88;;
49177;SDS011;35016;55.674;37.468;2023-12-29T11:21:55;8.07;;;3.00;;
49177;SDS011;35016;55.674;37.468;2023-12-29T11:24:26;8.45;;;2.75;;
49177;SDS011;35016;55.674;37.468;2023-12-29T11:27:04;9.25;;;3.13;;
49177;SDS011;35016;55.674;37.468;2023-12-29T11:29:35;9.38;;;3.13;;
49177;SDS011;35016;55.674;37.468;2023-12-29T11:32:06;9.57;;;3.65;;
49177;SDS011;35016;55.674;37.468;2023-12-29T11:34:54;7.95;;;3.45;;
49177;SDS011;35016;55.674;37.468;2023-12-29T11:37:47;7.45;;;2.63;;
49177;SDS011;35016;55.674;37.468;2023-12-29T11:40:36;7.95;;;3.13;;
49177;SDS011;35016;55.674;37.468;2023-12-29T11:43:17;8.15;;;2.83;;
49177;SDS011;35016;55.674;37.468;2023-12-29T11:45:45;8.43;;;2.95;;
49177;SDS011;35016;55.674;37.468;2023-12-29T11:48:12;8.50;;;3.60;;
49177;SDS011;35016;55.674;37.468;2023-12-29T11:50:59;9.00;;;3.20;;
49177;SDS011;35016;55.674;37.468;2023-12-29T11:53:33;7.55;;;2.63;;
49177;SDS011;35016;55.674;37.468;2023-12-29T11:56:00;9.15;;;2.85;;
49177;SDS011;35016;55.674;37.468;2023-12-29T11:58:30;9.65;;;3.50;;
49177;SDS011;35016;55.674;37.468;2023-12-29T12:00:57;9.35;;;3.38;;
49177;SDS011;35016;55.674;37.468;2023-12-29T12:03:26;9.15;;;3.15;;
49177;SDS011;35016;55.674;37.468;2023-12-29T12:05:55;9.25;;;3.28;;
49177;SDS011;35016;55.674;37.468;2023-12-29T12:08:30;7.05;;;2.03;;
49177;SDS011;35016;55.674;37.468;2023-12-29T12:13:56;7.53;;;2.95;;
49177;SDS011;35016;55.674;37.468;2023-12-29T12:19:09;8.43;;;3.22;;
49177;SDS011;35016;55.674;37.468;2023-12-29T12:21:37;10.88;;;3.58;;
49177;SDS011;35016;55.674;37.468;2023-12-29T12:24:04;9.30;;;2.92;;
49177;SDS011;35016;55.674;37.468;2023-12-29T12:26:32;8.35;;;2.90;;
49177;SDS011;35016;55.674;37.468;2023-12-29T12:29:00;8.77;;;3.63;;
49177;SDS011;35016;55.674;37.468;2023-12-29T12:31:27;9.00;;;3.45;;
49177;SDS011;35016;55.674;37.468;2023-12-29T12:33:58;8.52;;;3.60;;
49177;SDS011;35016;55.674;37.468;2023-12-29T12:36:29;6.55;;;2.72;;
49177;SDS011;35016;55.674;37.468;2023-12-29T12:38:57;9.82;;;3.47;;
49177;SDS011;35016;55.674;37.468;2023-12-29T12:41:24;7.72;;;3.08;;
49177;SDS011;35016;55.674;37.468;2023-12-29T12:43:56;8.93;;;3.60;;
49177;SDS011;35016;55.674;37.468;2023-12-29T12:46:41;11.15;;;3.72;;
49177;SDS011;35016;55.674;37.468;2023-12-29T12:49:16;9.25;;;3.13;;
49177;SDS011;35016;55.674;37.468;2023-12-29T12:51:45;8.57;;;3.40;;
49177;SDS011;35016;55.674;37.468;2023-12-29T12:54:12;7.95;;;3.33;;
49177;SDS011;35016;55.674;37.468;2023-12-29T12:56:42;7.85;;;3.13;;
49177;SDS011;35016;55.674;37.468;2023-12-29T12:59:10;10.18;;;4.50;;
49177;SDS011;35016;55.674;37.468;2023-12-29T13:01:38;9.70;;;3.42;;
49177;SDS011;35016;55.674;37.468;2023-12-29T13:04:07;11.32;;;4.57;;
49177;SDS011;35016;55.674;37.468;2023-12-29T13:06:39;7.75;;;2.80;;
49177;SDS011;35016;55.674;37.468;2023-12-29T13:09:11;10.55;;;4.03;;
49177;SDS011;35016;55.674;37.468;2023-12-29T13:11:39;10.82;;;4.10;;
49177;SDS011;35016;55.674;37.468;2023-12-29T13:14:18;10.15;;;3.30;;
49177;SDS011;35016;55.674;37.468;2023-12-29T13:16:47;7.63;;;2.97;;
49177;SDS011;35016;55.674;37.468;2023-12-29T13:19:15;10.70;;;4.15;;
49177;SDS011;35016;55.674;37.468;2023-12-29T13:21:47;10.55;;;3.53;;
49177;SDS011;35016;55.674;37.468;2023-12-29T13:24:16;8.20;;;3.40;;
49177;SDS011;35016;55.674;37.468;2023-12-29T13:26:44;9.13;;;3.60;;
49177;SDS011;35016;55.674;37.468;2023-12-29T13:29:14;9.48;;;3.63;;
49177;SDS011;35016;55.674;37.468;2023-12-29T13:31:41;9.95;;;4.32;;
49177;SDS011;35016;55.674;37.468;2023-12-29T13:34:13;10.25;;;3.83;;
49177;SDS011;35016;55.674;37.468;2023-12-29T13:36:53;8.65;;;2.95;;
49177;SDS011;35016;55.674;37.468;2023-12-29T13:39:36;8.52;;;2.85;;
49177;SDS011;35016;55.674;37.468;2023-12-29T13:42:04;9.60;;;3.28;;
49177;SDS011;35016;55.674;37.468;2023-12-29T13:44:32;11.75;;;4.00;;
49177;SDS011;35016;55.674;37.468;2023-12-29T13:47:01;10.75;;;4.00;;
49177;SDS011;35016;55.674;37.468;2023-12-29T13:49:29;9.70;;;4.10;;
49177;SDS011;35016;55.674;37.468;2023-12-29T13:52:05;8.85;;;3.25;;
49177;SDS011;35016;55.674;37.468;2023-12-29T13:54:42;12.07;;;3.67;;
49177;SDS011;35016;55.674;37.468;2023-12-29T13:57:10;10.52;;;4.38;;
49177;SDS011;35016;55.674;37.468;2023-12-29T13:59:39;12.23;;;4.68;;
49177;SDS011;35016;55.674;37.468;2023-12-29T14:02:19;9.30;;;4.05;;
49177;SDS011;35016;55.674;37.468;2023-12-29T14:07:43;12.27;;;4.57;;
49177;SDS011;35016;55.674;37.468;2023-12-29T14:10:21;10.93;;;4.25;;
49177;SDS011;35016;55.674;37.468;2023-12-29T14:12:49;9.50;;;4.35;;
49177;SDS011;35016;55.674;37.468;2023-12-29T14:15:16;10.52;;;4.15;;
49177;SDS011;35016;55.674;37.468;2023-12-29T14:17:43;10.93;;;3.90;;
49177;SDS011;35016;55.674;37.468;2023-12-29T14:20:10;8.77;;;3.53;;
49177;SDS011;35016;55.674;37.468;2023-12-29T14:22:37;9.00;;;3.78;;
49177;SDS011;35016;55.674;37.468;2023-12-29T14:25:05;12.18;;;4.32;;
49177;SDS011;35016;55.674;37.468;2023-12-29T14:27:35;9.93;;;4.78;;
49177;SDS011;35016;55.674;37.468;2023-12-29T14:30:02;11.07;;;4.35;;
49177;SDS011;35016;55.674;37.468;2023-12-29T14:32:30;11.32;;;4.63;;
49177;SDS011;35016;55.674;37.468;2023-12-29T14:34:58;10.05;;;4.80;;
49177;SDS011;35016;55.674;37.468;2023-12-29T14:37:25;13.02;;;5.70;;
49177;SDS011;35016;55.674;37.468;2023-12-29T14:39:52;11.05;;;5.07;;
49177;SDS011;35016;55.674;37.468;2023-12-29T14:42:19;12.95;;;5.35;;
49177;SDS011;35016;55.674;37.468;2023-12-29T14:44:47;11.32;;;5.32;;
49177;SDS011;35016;55.674;37.468;2023-12-29T14:47:17;9.40;;;4.57;;
49177;SDS011;35016;55.674;37.468;2023-12-29T14:49:44;10.32;;;5.00;;
49177;SDS011;35016;55.674;37.468;2023-12-29T14:52:12;9.75;;;4.50;;
49177;SDS011;35016;55.674;37.468;2023-12-29T14:54:39;11.43;;;5.38;;
49177;SDS011;35016;55.674;37.468;2023-12-29T14:57:08;12.45;;;4.60;;
49177;SDS011;35016;55.674;37.468;2023-12-29T14:59:44;12.80;;;4.82;;
49177;SDS011;35016;55.674;37.468;2023-12-29T15:02:11;10.43;;;4.03;;